KBQK/BQK METAR and TAF weather

Enter ICAO airport designator
Station Type Date Time Source
KBQK METAR 2019/04/18 20:55 UTC NOAA

KBQK 182055Z AUTO 16012G21KT 10SM CLR 26/17 A2992 RMK AO2 LTG DSNT NW T02620172


Station Type Date Time Source
KBQK Decoded METAR 2019/04/18 20:55 UTC NOAA

Brunswick / Glynco, GA, United States (KBQK) 31-15N 081-28W
Apr 18, 2019 - 04:55 PM EDT / 2019.04.18 2055 UTC
Wind: from the SSE (160 degrees) at 14 MPH (12 KT) gusting to 24 MPH (21 KT):0
Visibility: 10 mile(s):0
Sky conditions: clear
Weather: Lightning observed
Temperature: 79.2 F (26.2 C)
Dew Point: 63.0 F (17.2 C)
Relative Humidity: 57%
Pressure (altimeter): 29.92 in. Hg (1013 hPa)
ob: KBQK 182055Z AUTO 16012G21KT 10SM CLR 26/17 A2992 RMK AO2 LTG DSNT NW T02620172
cycle: 21

Station Type Date Time Source
KBQK TAF UTC NOAA

Error!

Example: see airport list